createdAt,value
2022-08-19T00:01:38.208Z,4.50
2022-08-19T00:04:08.072Z,5.70
2022-08-19T00:06:36.544Z,7.10
2022-08-19T00:09:06.250Z,4.97
2022-08-19T00:11:33.265Z,3.90
2022-08-19T00:14:00.097Z,3.47
2022-08-19T00:16:27.607Z,6.23
2022-08-19T00:18:56.466Z,4.33
2022-08-19T00:21:25.790Z,5.27
2022-08-19T00:23:53.384Z,4.67
2022-08-19T00:26:21.217Z,3.83
2022-08-19T00:28:48.125Z,5.47
2022-08-19T00:31:15.042Z,3.87
2022-08-19T00:33:41.812Z,3.27
2022-08-19T00:36:10.453Z,4.13
2022-08-19T00:38:39.369Z,3.50
2022-08-19T00:41:07.171Z,3.70
2022-08-19T00:43:34.026Z,4.50
2022-08-19T00:46:02.527Z,5.57
2022-08-19T00:48:29.603Z,5.07
2022-08-19T00:50:56.723Z,4.00
2022-08-19T00:53:27.485Z,3.93
2022-08-19T00:55:57.401Z,5.20
2022-08-19T00:58:29.926Z,4.97
2022-08-19T01:00:57.117Z,4.33
2022-08-19T01:03:24.373Z,4.37
2022-08-19T01:05:54.375Z,3.93
2022-08-19T01:08:21.907Z,4.17
2022-08-19T01:10:57.209Z,4.80
2022-08-19T01:13:27.656Z,3.93
2022-08-19T01:16:04.856Z,3.67
2022-08-19T01:18:33.808Z,3.80
2022-08-19T01:21:12.053Z,3.30
2022-08-19T01:23:45.185Z,5.47
2022-08-19T01:26:19.330Z,3.60
2022-08-19T01:28:48.357Z,4.40
2022-08-19T01:31:26.939Z,5.87
2022-08-19T01:33:57.107Z,3.93
2022-08-19T01:36:39.823Z,4.07
2022-08-19T01:39:10.580Z,3.33
2022-08-19T01:41:37.651Z,3.23
2022-08-19T01:44:17.316Z,3.13
2022-08-19T01:46:48.451Z,3.50
2022-08-19T01:49:16.760Z,5.30
2022-08-19T01:51:44.172Z,4.60
2022-08-19T01:54:13.962Z,4.33
2022-08-19T01:56:55.878Z,3.17
2022-08-19T01:59:24.697Z,2.47
2022-08-19T02:01:51.534Z,6.23
2022-08-19T02:04:18.550Z,2.47
2022-08-19T02:06:45.523Z,4.87
2022-08-19T02:09:12.754Z,3.33
2022-08-19T02:11:40.235Z,2.80
2022-08-19T02:14:08.847Z,2.93
2022-08-19T02:16:37.830Z,3.80
2022-08-19T02:19:05.764Z,4.27
2022-08-19T02:21:33.489Z,2.60
2022-08-19T02:24:00.933Z,3.60
2022-08-19T02:26:28.019Z,2.20
2022-08-19T02:28:55.895Z,3.27
2022-08-19T02:31:25.855Z,2.30
2022-08-19T02:33:56.594Z,3.50
2022-08-19T02:36:26.127Z,2.83
2022-08-19T02:38:54.807Z,3.63
2022-08-19T02:41:28.728Z,3.97
2022-08-19T02:44:26.824Z,3.47
2022-08-19T02:46:51.710Z,4.83
2022-08-19T02:49:19.993Z,7.93
2022-08-19T02:51:47.296Z,3.63
2022-08-19T02:54:15.514Z,4.93
2022-08-19T02:56:44.097Z,6.60
2022-08-19T02:59:13.173Z,5.63
2022-08-19T03:01:43.121Z,4.97
2022-08-19T03:04:14.134Z,4.93
2022-08-19T03:06:44.119Z,6.87
2022-08-19T03:09:12.064Z,5.17
2022-08-19T03:11:39.836Z,6.87
2022-08-19T03:14:09.531Z,5.77
2022-08-19T03:16:43.256Z,5.80
2022-08-19T03:19:10.370Z,6.03
2022-08-19T03:21:37.519Z,6.60
2022-08-19T03:24:08.288Z,5.67
2022-08-19T03:26:39.152Z,5.37
2022-08-19T03:29:06.784Z,5.30
2022-08-19T03:31:43.455Z,6.67
2022-08-19T03:34:23.783Z,8.67
2022-08-19T03:36:50.753Z,5.80
2022-08-19T03:39:17.659Z,6.37
2022-08-19T03:41:48.425Z,6.53
2022-08-19T03:44:19.391Z,5.40
2022-08-19T03:46:49.196Z,5.23
2022-08-19T03:49:18.367Z,6.23
2022-08-19T03:51:46.976Z,6.37
2022-08-19T03:54:15.554Z,5.00
2022-08-19T03:56:44.938Z,6.33
2022-08-19T03:59:16.432Z,7.00
2022-08-19T04:01:44.151Z,5.03
2022-08-19T04:04:11.590Z,4.20
2022-08-19T04:06:40.406Z,4.90
2022-08-19T04:09:10.628Z,5.70
2022-08-19T04:11:49.264Z,5.17
2022-08-19T04:14:19.433Z,5.50
2022-08-19T04:16:48.262Z,5.90
2022-08-19T04:19:16.879Z,6.63
2022-08-19T04:21:46.293Z,5.60
2022-08-19T04:24:14.828Z,6.60
2022-08-19T04:26:42.828Z,6.87
2022-08-19T04:29:13.270Z,5.20
2022-08-19T04:31:42.023Z,7.70
2022-08-19T04:34:12.021Z,6.43
2022-08-19T04:36:42.208Z,6.10
2022-08-19T04:39:16.926Z,6.53
2022-08-19T04:42:03.671Z,6.03
2022-08-19T04:44:36.313Z,7.17
2022-08-19T04:47:11.842Z,6.13
2022-08-19T04:49:38.709Z,7.73
2022-08-19T04:52:05.654Z,6.23
2022-08-19T04:54:37.353Z,6.07
2022-08-19T04:57:10.939Z,8.07
2022-08-19T04:59:39.360Z,7.27
2022-08-19T05:02:09.381Z,8.07
2022-08-19T05:04:39.915Z,6.40
2022-08-19T05:07:08.645Z,7.57
2022-08-19T05:09:58.509Z,7.30
2022-08-19T05:12:22.715Z,6.07
2022-08-19T05:14:57.901Z,6.10
2022-08-19T05:17:28.007Z,6.50
2022-08-19T05:20:15.603Z,6.43
2022-08-19T05:22:44.822Z,7.03
2022-08-19T05:25:16.777Z,8.07
2022-08-19T05:27:44.234Z,7.07
2022-08-19T05:30:12.448Z,7.87
2022-08-19T05:32:40.536Z,9.20
2022-08-19T05:35:08.058Z,8.57
2022-08-19T05:37:35.292Z,6.83
2022-08-19T05:40:02.648Z,10.03
2022-08-19T05:42:29.584Z,8.30
2022-08-19T05:44:57.126Z,9.33
2022-08-19T05:47:24.119Z,8.37
2022-08-19T05:49:51.972Z,9.30
2022-08-19T05:52:25.418Z,7.70
2022-08-19T05:54:55.985Z,7.20
2022-08-19T05:57:24.605Z,7.50
2022-08-19T05:59:53.299Z,7.63
2022-08-19T06:02:27.551Z,11.93
2022-08-19T06:04:54.462Z,9.20
2022-08-19T06:07:21.375Z,7.37
2022-08-19T06:09:59.096Z,9.17
2022-08-19T06:12:35.056Z,9.83
2022-08-19T06:15:06.284Z,9.40
2022-08-19T06:17:33.146Z,8.57
2022-08-19T06:20:00.210Z,7.27
2022-08-19T06:22:28.070Z,8.60
2022-08-19T06:24:56.301Z,9.07
2022-08-19T06:27:23.531Z,7.80
2022-08-19T06:29:50.664Z,9.27
2022-08-19T06:32:19.815Z,9.07
2022-08-19T06:34:47.253Z,7.90
2022-08-19T06:37:14.941Z,9.57
2022-08-19T06:39:44.250Z,8.73
2022-08-19T06:42:14.330Z,9.83
2022-08-19T06:44:48.322Z,9.03
2022-08-19T06:47:23.396Z,7.90
2022-08-19T06:49:54.854Z,11.13
2022-08-19T06:52:27.710Z,8.73
2022-08-19T06:54:57.198Z,11.90
2022-08-19T06:57:27.461Z,12.70
2022-08-19T06:59:54.410Z,11.23
2022-08-19T07:02:21.790Z,11.10
2022-08-19T07:04:52.739Z,10.20
2022-08-19T07:07:21.799Z,10.07
2022-08-19T07:09:58.606Z,13.40
2022-08-19T07:12:30.587Z,9.37
2022-08-19T07:14:58.863Z,11.90
2022-08-19T07:17:26.367Z,8.97
2022-08-19T07:19:54.526Z,9.53
2022-08-19T07:22:24.400Z,10.27
2022-08-19T07:24:53.606Z,9.13
2022-08-19T07:27:24.794Z,9.47
2022-08-19T07:29:55.761Z,11.10
2022-08-19T07:32:23.754Z,14.57
2022-08-19T07:34:50.828Z,10.53
2022-08-19T07:37:18.011Z,13.60
2022-08-19T07:39:45.056Z,13.10
2022-08-19T07:42:13.359Z,11.93
2022-08-19T07:44:41.533Z,10.93
2022-08-19T07:47:08.444Z,12.47
2022-08-19T07:49:55.514Z,17.10
2022-08-19T07:52:23.418Z,13.30
2022-08-19T07:54:50.848Z,14.50
2022-08-19T07:57:19.508Z,14.73
2022-08-19T07:59:46.744Z,17.20
2022-08-19T08:02:13.990Z,13.00
2022-08-19T08:04:59.542Z,14.63
2022-08-19T08:07:46.173Z,15.63
2022-08-19T08:10:21.164Z,15.63
2022-08-19T08:12:58.359Z,16.57
2022-08-19T08:15:41.365Z,14.23
2022-08-19T08:18:09.756Z,15.43
2022-08-19T08:20:36.905Z,20.20
2022-08-19T08:23:22.771Z,18.17
2022-08-19T08:25:50.640Z,16.83
2022-08-19T08:28:18.671Z,18.83
2022-08-19T08:30:49.139Z,16.23
2022-08-19T08:33:33.036Z,17.07
2022-08-19T08:36:09.714Z,16.60
2022-08-19T08:38:40.139Z,19.30
2022-08-19T08:41:20.508Z,19.37
2022-08-19T08:43:49.972Z,20.63
2022-08-19T08:46:30.961Z,19.00
2022-08-19T08:49:12.393Z,18.93
2022-08-19T08:51:59.599Z,20.43
2022-08-19T08:54:32.052Z,17.60
2022-08-19T08:57:03.644Z,19.17
2022-08-19T08:59:38.394Z,22.53
2022-08-19T09:02:05.729Z,16.20
2022-08-19T09:04:32.746Z,18.83
2022-08-19T09:07:35.247Z,22.00
2022-08-19T09:10:21.139Z,18.33
2022-08-19T09:12:58.821Z,20.90
2022-08-19T09:15:41.756Z,18.70
2022-08-19T09:18:09.887Z,21.57
2022-08-19T09:20:43.096Z,22.43
2022-08-19T09:23:11.887Z,18.43
2022-08-19T09:25:41.139Z,22.63
2022-08-19T09:28:22.422Z,23.70
2022-08-19T09:30:54.026Z,22.60
2022-08-19T09:33:21.319Z,20.63
2022-08-19T09:35:53.088Z,22.60
2022-08-19T09:38:22.213Z,22.20
2022-08-19T09:40:51.024Z,23.30
2022-08-19T09:43:33.338Z,26.77
2022-08-19T09:46:02.487Z,26.30
2022-08-19T09:48:29.894Z,19.73
2022-08-19T09:51:06.611Z,20.87
2022-08-19T09:53:33.604Z,19.90
2022-08-19T09:56:01.375Z,24.23
2022-08-19T09:58:34.393Z,21.83
2022-08-19T10:01:03.357Z,23.97
2022-08-19T10:03:32.517Z,19.23
2022-08-19T10:06:02.260Z,19.33
2022-08-19T10:08:32.160Z,20.27
2022-08-19T10:11:00.149Z,17.33
2022-08-19T10:13:47.677Z,19.90
2022-08-19T10:16:18.852Z,14.47
2022-08-19T10:18:49.741Z,14.57
2022-08-19T10:21:24.241Z,14.23
2022-08-19T10:23:58.493Z,16.50
2022-08-19T10:26:32.402Z,14.73
2022-08-19T10:28:59.711Z,17.43
2022-08-19T10:32:01.830Z,13.30
2022-08-19T10:34:27.103Z,14.83
2022-08-19T10:36:56.303Z,14.57
2022-08-19T10:39:23.831Z,15.13
2022-08-19T10:41:57.895Z,14.63
2022-08-19T10:44:25.384Z,16.87
2022-08-19T10:46:59.952Z,14.30
2022-08-19T10:49:28.018Z,13.73
2022-08-19T10:52:18.969Z,13.33
2022-08-19T10:55:08.313Z,13.50
2022-08-19T10:58:03.815Z,16.57
2022-08-19T11:00:24.641Z,14.80
2022-08-19T11:02:52.122Z,13.53
2022-08-19T11:05:20.075Z,15.30
2022-08-19T11:07:47.156Z,14.97
2022-08-19T11:10:20.899Z,15.87
2022-08-19T11:12:49.359Z,17.77
2022-08-19T11:15:16.695Z,15.40
2022-08-19T11:17:44.816Z,14.27
2022-08-19T11:20:14.354Z,21.00
2022-08-19T11:22:42.508Z,18.33
2022-08-19T11:25:11.763Z,15.33
2022-08-19T11:27:44.197Z,14.93
2022-08-19T11:30:14.219Z,15.73
2022-08-19T11:32:48.505Z,15.37
2022-08-19T11:35:17.251Z,13.90
2022-08-19T11:37:44.423Z,18.87
2022-08-19T11:40:12.248Z,14.13
2022-08-19T11:42:58.104Z,14.53
2022-08-19T11:45:27.640Z,12.17
2022-08-19T11:47:54.861Z,10.23
2022-08-19T11:50:22.199Z,14.47
2022-08-19T11:52:50.812Z,13.33
2022-08-19T11:55:17.849Z,12.93
2022-08-19T11:57:44.751Z,13.47
2022-08-19T12:00:14.261Z,14.13
2022-08-19T12:02:41.609Z,14.00
2022-08-19T12:05:12.238Z,14.30
2022-08-19T12:07:40.855Z,13.27
2022-08-19T12:10:08.353Z,14.97
2022-08-19T12:12:35.442Z,10.27
2022-08-19T12:15:03.223Z,9.43
2022-08-19T12:17:31.818Z,10.27
2022-08-19T12:19:58.714Z,13.40
2022-08-19T12:22:25.889Z,8.50
2022-08-19T12:24:54.218Z,12.83
2022-08-19T12:27:40.138Z,9.07
2022-08-19T12:30:10.930Z,12.63
2022-08-19T12:32:38.318Z,10.10
2022-08-19T12:35:06.503Z,14.13
2022-08-19T12:37:33.953Z,10.30
2022-08-19T12:40:00.875Z,8.67
2022-08-19T12:42:27.950Z,7.97
2022-08-19T12:44:55.030Z,9.23
2022-08-19T12:47:22.227Z,10.93
2022-08-19T12:49:54.093Z,11.13
2022-08-19T12:52:24.642Z,10.23
2022-08-19T12:54:54.504Z,10.07
2022-08-19T12:57:32.631Z,11.67
2022-08-19T13:00:12.721Z,18.37
2022-08-19T13:02:41.876Z,21.93
2022-08-19T13:05:12.567Z,24.03
2022-08-19T13:07:40.791Z,21.77
2022-08-19T13:10:10.189Z,18.47
2022-08-19T13:12:37.296Z,22.30
2022-08-19T13:15:10.656Z,16.10
2022-08-19T13:17:39.215Z,20.40
2022-08-19T13:20:08.920Z,22.90
2022-08-19T13:22:38.844Z,17.60
2022-08-19T13:25:07.433Z,17.27
2022-08-19T13:27:34.985Z,17.30
2022-08-19T13:30:21.128Z,18.33
2022-08-19T13:33:06.116Z,23.20
2022-08-19T13:35:33.615Z,16.00
2022-08-19T13:38:05.900Z,20.73
2022-08-19T13:40:39.952Z,19.40
2022-08-19T13:43:17.818Z,17.23
2022-08-19T13:45:50.786Z,20.10
2022-08-19T13:48:18.437Z,17.60
2022-08-19T13:50:47.730Z,16.10
2022-08-19T13:53:16.066Z,18.40
2022-08-19T13:55:44.752Z,17.90
2022-08-19T13:58:12.970Z,20.07
2022-08-19T14:00:44.005Z,20.90
2022-08-19T14:03:11.078Z,22.37
2022-08-19T14:05:39.536Z,18.97
2022-08-19T14:08:06.744Z,15.33
2022-08-19T14:10:34.303Z,17.97
2022-08-19T14:13:04.366Z,15.17
2022-08-19T14:15:31.805Z,19.73
2022-08-19T14:17:59.374Z,17.67
2022-08-19T14:20:26.509Z,17.00
2022-08-19T14:22:54.979Z,15.93
2022-08-19T14:25:25.235Z,14.50
2022-08-19T14:27:52.253Z,15.17
2022-08-19T14:30:23.813Z,13.90
2022-08-19T14:32:50.693Z,16.53
2022-08-19T14:35:17.778Z,17.70
2022-08-19T14:37:46.548Z,14.47
2022-08-19T14:40:17.848Z,12.50
2022-08-19T14:42:45.265Z,12.70
2022-08-19T14:45:12.956Z,12.07
2022-08-19T14:47:40.986Z,10.50
2022-08-19T14:50:18.311Z,11.50
2022-08-19T14:52:49.606Z,8.20
2022-08-19T14:55:18.285Z,7.80
2022-08-19T14:57:46.145Z,4.27
2022-08-19T15:00:14.416Z,5.67
2022-08-19T15:02:42.779Z,4.03
2022-08-19T15:05:10.045Z,3.23
2022-08-19T15:07:38.141Z,3.20
2022-08-19T15:10:07.942Z,2.00
2022-08-19T15:12:36.183Z,2.93
2022-08-19T15:15:03.629Z,2.50
2022-08-19T15:17:43.449Z,2.20
2022-08-19T15:20:16.063Z,1.97
2022-08-19T15:22:43.474Z,3.17
2022-08-19T15:25:12.677Z,1.60
2022-08-19T15:27:41.830Z,1.27
2022-08-19T15:30:10.877Z,1.67
2022-08-19T15:32:39.251Z,0.93
2022-08-19T15:35:08.124Z,1.90
2022-08-19T15:37:37.039Z,1.07
2022-08-19T15:40:07.577Z,0.83
2022-08-19T15:42:37.629Z,2.60
2022-08-19T15:45:08.307Z,2.37
2022-08-19T15:47:35.859Z,1.90
2022-08-19T15:50:32.276Z,1.50
2022-08-19T15:53:04.247Z,2.17
2022-08-19T15:55:34.823Z,5.27
2022-08-19T15:58:20.556Z,3.57
2022-08-19T16:01:16.289Z,2.53
2022-08-19T16:04:03.799Z,3.57
2022-08-19T16:06:31.886Z,4.90
2022-08-19T16:09:02.015Z,4.00
2022-08-19T16:11:32.031Z,4.47
2022-08-19T16:14:00.182Z,4.13
2022-08-19T16:16:33.743Z,5.07
2022-08-19T16:19:04.021Z,2.13
2022-08-19T16:21:33.322Z,4.90
2022-08-19T16:24:03.416Z,5.53
2022-08-19T16:26:31.652Z,2.60
2022-08-19T16:28:59.814Z,3.73
2022-08-19T16:31:27.683Z,4.00
2022-08-19T16:33:55.332Z,6.70
2022-08-19T16:36:24.314Z,5.87
2022-08-19T16:38:52.886Z,5.47
2022-08-19T16:41:21.017Z,6.43
2022-08-19T16:43:52.675Z,3.23
2022-08-19T16:46:22.635Z,4.77
2022-08-19T16:48:50.259Z,2.67
2022-08-19T16:51:18.288Z,3.90
2022-08-19T16:53:45.717Z,2.93
2022-08-19T16:56:13.117Z,1.80
2022-08-19T16:58:40.950Z,1.60
2022-08-19T17:01:10.330Z,3.53
2022-08-19T17:03:39.976Z,2.30
2022-08-19T17:06:20.564Z,2.23
2022-08-19T17:08:50.001Z,3.37
2022-08-19T17:11:19.139Z,2.53
2022-08-19T17:13:47.769Z,3.13
2022-08-19T17:16:25.135Z,4.53
2022-08-19T17:18:54.326Z,3.60
2022-08-19T17:21:24.051Z,3.60
2022-08-19T17:23:51.060Z,4.67
2022-08-19T17:26:18.818Z,2.00
2022-08-19T17:28:51.423Z,2.50
2022-08-19T17:31:21.566Z,4.50
2022-08-19T17:33:49.117Z,3.83
2022-08-19T17:36:28.290Z,5.23
2022-08-19T17:38:57.406Z,5.40
2022-08-19T17:41:26.865Z,6.50
2022-08-19T17:43:55.036Z,4.90
2022-08-19T17:46:22.030Z,5.67
2022-08-19T17:48:52.680Z,3.23
2022-08-19T17:51:52.395Z,3.90
2022-08-19T17:54:19.906Z,3.97
2022-08-19T17:56:47.473Z,4.63
2022-08-19T17:59:15.653Z,3.97
2022-08-19T18:01:53.429Z,6.60
2022-08-19T18:04:26.139Z,5.13
2022-08-19T18:06:55.154Z,4.10
2022-08-19T18:09:25.113Z,5.97
2022-08-19T18:11:54.488Z,4.13
2022-08-19T18:14:32.790Z,5.07
2022-08-19T18:17:12.791Z,3.57
2022-08-19T18:19:43.333Z,4.33
2022-08-19T18:22:29.363Z,3.90
2022-08-19T18:24:57.631Z,6.40
2022-08-19T18:27:25.867Z,5.17
2022-08-19T18:29:59.233Z,3.57
2022-08-19T18:32:34.544Z,5.40
2022-08-19T18:35:04.423Z,7.67
2022-08-19T18:37:31.335Z,4.30
2022-08-19T18:40:17.268Z,5.20
2022-08-19T18:43:04.475Z,4.50
2022-08-19T18:45:50.037Z,4.27
2022-08-19T18:48:35.609Z,4.80
2022-08-19T18:51:02.988Z,4.20
2022-08-19T18:53:33.157Z,4.17
2022-08-19T18:56:00.207Z,5.00
2022-08-19T18:58:35.119Z,5.47
2022-08-19T19:01:21.318Z,5.07
2022-08-19T19:03:53.959Z,5.83
2022-08-19T19:06:24.716Z,5.23
2022-08-19T19:08:53.314Z,8.23
2022-08-19T19:11:24.251Z,4.57
2022-08-19T19:13:52.016Z,4.73
2022-08-19T19:16:23.742Z,7.10
2022-08-19T19:18:52.407Z,5.60
2022-08-19T19:21:23.104Z,6.10
2022-08-19T19:23:50.969Z,6.00
2022-08-19T19:26:18.089Z,5.10
2022-08-19T19:28:47.954Z,5.83
2022-08-19T19:31:18.086Z,6.67
2022-08-19T19:33:45.822Z,7.53
2022-08-19T19:36:13.028Z,6.83
2022-08-19T19:38:47.706Z,8.20
2022-08-19T19:41:19.933Z,4.43
2022-08-19T19:43:46.956Z,8.07
2022-08-19T19:46:15.572Z,5.37
2022-08-19T19:48:42.839Z,6.10
2022-08-19T19:51:10.432Z,4.33
2022-08-19T19:53:37.514Z,6.73
2022-08-19T19:56:05.279Z,3.83
2022-08-19T19:58:35.680Z,7.03
2022-08-19T20:01:08.066Z,6.13
2022-08-19T20:03:36.631Z,3.57
2022-08-19T20:06:03.483Z,6.03
2022-08-19T20:08:49.263Z,3.30
2022-08-19T20:11:29.095Z,2.77
2022-08-19T20:13:56.118Z,2.80
2022-08-19T20:16:25.391Z,4.50
2022-08-19T20:18:52.652Z,6.87
2022-08-19T20:21:26.103Z,4.23
2022-08-19T20:24:08.871Z,4.37
2022-08-19T20:26:37.086Z,3.10
2022-08-19T20:29:11.244Z,2.90
2022-08-19T20:31:57.265Z,2.93
2022-08-19T20:34:24.918Z,3.27
2022-08-19T20:36:52.118Z,5.00
2022-08-19T20:39:19.006Z,2.90
2022-08-19T20:41:45.781Z,4.73
2022-08-19T20:44:12.853Z,2.60
2022-08-19T20:46:39.985Z,5.33
2022-08-19T20:49:08.191Z,3.50
2022-08-19T20:51:35.567Z,4.77
2022-08-19T20:54:02.522Z,2.83
2022-08-19T20:56:29.685Z,4.37
2022-08-19T20:59:00.194Z,3.93
2022-08-19T21:01:27.166Z,3.90
2022-08-19T21:03:54.075Z,4.23
2022-08-19T21:06:22.112Z,3.90
2022-08-19T21:08:50.073Z,3.53
2022-08-19T21:11:20.629Z,4.43
2022-08-19T21:13:48.414Z,3.47
2022-08-19T21:16:15.286Z,3.20
2022-08-19T21:18:42.045Z,6.17
2022-08-19T21:21:09.612Z,3.27
2022-08-19T21:23:36.421Z,3.73
2022-08-19T21:26:03.587Z,4.73
2022-08-19T21:28:36.123Z,5.30
2022-08-19T21:31:05.627Z,2.97
2022-08-19T21:33:32.940Z,5.93
2022-08-19T21:36:00.258Z,5.93
2022-08-19T21:38:27.543Z,5.50
2022-08-19T21:40:55.042Z,4.83
2022-08-19T21:43:22.683Z,4.93
2022-08-19T21:45:51.023Z,4.90
2022-08-19T21:48:18.214Z,3.63
2022-08-19T21:50:48.392Z,4.50
2022-08-19T21:53:19.655Z,4.03
2022-08-19T21:55:53.349Z,6.10
2022-08-19T21:58:28.233Z,4.27
2022-08-19T22:01:05.572Z,6.20
2022-08-19T22:03:33.574Z,4.23
2022-08-19T22:06:00.332Z,7.30
2022-08-19T22:08:27.354Z,12.73
2022-08-19T22:10:54.339Z,5.73
2022-08-19T22:13:21.230Z,7.30
2022-08-19T22:15:51.834Z,5.90
2022-08-19T22:18:19.199Z,4.93
2022-08-19T22:20:47.825Z,5.50
2022-08-19T22:23:14.793Z,11.77
2022-08-19T22:25:45.441Z,4.73
2022-08-19T22:28:18.802Z,6.03
2022-08-19T22:30:47.316Z,8.43
2022-08-19T22:33:19.720Z,6.43
2022-08-19T22:35:47.477Z,8.27
2022-08-19T22:38:15.346Z,5.57
2022-08-19T22:40:47.278Z,10.40
2022-08-19T22:43:20.685Z,8.03
2022-08-19T22:45:49.292Z,7.13
2022-08-19T22:48:19.533Z,5.70
2022-08-19T22:51:07.482Z,5.20
2022-08-19T22:53:36.880Z,3.73
2022-08-19T22:56:06.124Z,7.43
2022-08-19T22:58:33.613Z,9.40
2022-08-19T23:01:01.644Z,7.30
2022-08-19T23:03:28.907Z,8.53
2022-08-19T23:05:56.364Z,5.57
2022-08-19T23:08:24.189Z,8.27
2022-08-19T23:10:51.377Z,9.57
2022-08-19T23:13:18.474Z,7.87
2022-08-19T23:15:46.891Z,6.27
2022-08-19T23:18:14.547Z,6.30
2022-08-19T23:20:43.290Z,7.33
2022-08-19T23:23:13.217Z,5.77
2022-08-19T23:25:40.543Z,6.60
2022-08-19T23:28:26.003Z,6.60
2022-08-19T23:30:53.650Z,10.40
2022-08-19T23:33:26.661Z,8.20
2022-08-19T23:36:16.784Z,5.90
2022-08-19T23:38:46.499Z,6.70
2022-08-19T23:41:14.767Z,5.93
2022-08-19T23:43:42.984Z,6.73
2022-08-19T23:46:12.939Z,7.57
2022-08-19T23:48:39.982Z,8.10
2022-08-19T23:51:09.984Z,4.13
2022-08-19T23:53:38.602Z,6.60
2022-08-19T23:56:07.446Z,5.53
2022-08-19T23:58:36.128Z,7.13
